Portada
METAR-TAF:

METAR-TAF

Aeroports :

Fernando de Noronha, Pernambuco, Brasil

latitud: 03-51S, longitud: 032-25W, altitud: 56 m

Observació

L'informe es va fer fa 57 minuts, a les 16:00 UTC
Vent 11 kt del Sud/Sud-Est, variant entre Est/Sud-Est i Sud/Sud-Oest
Temperatura 30°C
Humitat 62%
Pressió 1010 hPa
Visibilitat 10 km o més
sense núvols per sota de 1500 mi sense presència de cumulonimbus.

METAR: SBFN 121600Z 15011KT 110V210 CAVOK 30/22 Q1010

Hora: 14:57 (16:57 UTC)

Pronòstic

L'informe es va fer fa 6 hores i 57 minuts, a les 10:00 UTC
Pronòstic vàlid del 12 a les 12 UTC al 12 a les 24 UTC
Vent 15 kt del Sud-Est
Visibilitat 10 km o més
Núvols disperses a una alçada de 2000 ft

TAF: SBFN 121000Z 1212/1224 13015KT 9999 SCT020 TN28/1212Z TX30/1214Z RMK PEH

Observacions i pronòstics meteorològics de més de 4000 aeroports (METAR i TAF).

Les estacions disponibles són els punts grocs i vermells al mapa.

Posi el ratolí al punt desitjat per veure el nom de l'estació.

Feu clic per veure les observacions i els pronòstics meteorològics.

Per canviar el mapa: feu clic els botons verds amb una creu de color negre per apropar; al botó verd amb un guió per allunyar la imatge; o en les fletxes verdes per a mapes adjacents.


METAR-TAF: